Time;durP1;ratioP1;P1;durP2;ratioP2;P2;SDS_P1;SDS_P2;PMS_P1;PMS_P2;Temp;Humidity;BMP_temperature;BMP_pressure;BME280_temperature;BME280_humidity;BME280_pressure;Samples;Min_cycle;Max_cycle;Signal;HPM_P1;HPM_P2
2023/08/13 00:02:08;;;;;;;7.20;2.35;;;17.50;71.80;;;;;;5027488;28;20460;-75
2023/08/13 00:04:36;;;;;;;7.68;2.50;;;17.50;72.00;;;;;;5028726;28;20053;-75
2023/08/13 00:07:04;;;;;;;9.07;2.43;;;17.50;72.20;;;;;;5027316;28;20137;-75
2023/08/13 00:09:31;;;;;;;7.05;2.20;;;17.50;72.60;;;;;;5028637;28;20054;-75
2023/08/13 00:11:58;;;;;;;7.03;1.95;;;17.50;72.60;;;;;;5027333;28;20426;-75
2023/08/13 00:14:26;;;;;;;9.65;2.00;;;17.50;72.60;;;;;;5027676;28;20046;-75
2023/08/13 00:16:53;;;;;;;7.65;2.00;;;17.50;72.90;;;;;;5026850;28;20058;-75
2023/08/13 00:19:21;;;;;;;8.67;2.37;;;17.50;72.90;;;;;;5027548;28;20052;-75
2023/08/13 00:21:48;;;;;;;7.65;1.85;;;17.40;73.00;;;;;;5010812;28;20451;-75
2023/08/13 00:24:16;;;;;;;12.25;2.40;;;17.40;73.00;;;;;;5027103;28;20050;-75
2023/08/13 00:26:43;;;;;;;7.53;2.22;;;17.50;73.30;;;;;;5027547;28;20053;-76
2023/08/13 00:29:11;;;;;;;7.90;2.03;;;17.50;73.40;;;;;;5010321;28;20542;-75
2023/08/13 00:31:41;;;;;;;7.40;2.17;;;17.40;73.50;;;;;;5027014;28;20193;-75
2023/08/13 00:34:08;;;;;;;6.72;2.10;;;17.40;73.60;;;;;;5010466;28;20089;-75
2023/08/13 00:36:35;;;;;;;7.10;2.17;;;17.40;73.70;;;;;;5010831;28;20061;-75
2023/08/13 00:39:03;;;;;;;7.18;2.45;;;17.40;73.70;;;;;;5010451;28;20065;-75
2023/08/13 00:41:30;;;;;;;8.32;2.20;;;17.40;73.80;;;;;;5010711;28;20046;-75
2023/08/13 00:43:57;;;;;;;9.47;2.13;;;17.40;74.00;;;;;;5028558;28;20176;-75
2023/08/13 00:46:24;;;;;;;12.93;2.20;;;17.40;74.00;;;;;;5030550;28;20057;-75
2023/08/13 00:48:57;;;;;;;9.52;2.58;;;17.40;74.20;;;;;;5014067;28;20096;-75
2023/08/13 00:51:27;;;;;;;8.35;2.28;;;17.40;74.30;;;;;;5030515;28;20626;-75
2023/08/13 00:53:55;;;;;;;8.75;1.90;;;17.50;74.40;;;;;;5030546;28;20955;-75
2023/08/13 00:56:23;;;;;;;9.50;2.40;;;17.50;74.50;;;;;;5029963;28;20049;-75
2023/08/13 00:58:51;;;;;;;6.95;2.20;;;17.50;74.60;;;;;;5013626;28;20096;-75
2023/08/13 01:01:18;;;;;;;8.90;2.33;;;17.40;74.70;;;;;;5013753;28;20137;-75
2023/08/13 01:03:45;;;;;;;10.77;2.50;;;17.40;74.60;;;;;;5030396;28;20390;-75
2023/08/13 01:06:19;;;;;;;9.63;2.30;;;17.40;74.70;;;;;;5013708;28;20052;-75
2023/08/13 01:08:53;;;;;;;11.93;2.20;;;17.40;74.60;;;;;;5031713;28;20054;-75
2023/08/13 01:11:27;;;;;;;8.23;2.10;;;17.40;74.70;;;;;;5013364;28;20042;-75
2023/08/13 01:14:04;;;;;;;10.52;2.42;;;17.40;74.70;;;;;;5030045;28;20048;-75
2023/08/13 01:16:34;;;;;;;11.10;2.40;;;17.40;74.80;;;;;;5030182;28;20155;-75
2023/08/13 01:19:02;;;;;;;8.98;2.10;;;17.40;74.70;;;;;;5031285;28;20054;-75
2023/08/13 01:21:30;;;;;;;9.10;2.37;;;17.40;74.70;;;;;;5013418;28;20482;-75
2023/08/13 01:23:59;;;;;;;9.63;2.42;;;17.40;74.90;;;;;;5030397;28;20052;-75
2023/08/13 01:26:34;;;;;;;8.90;1.85;;;17.30;75.00;;;;;;5013333;28;20050;-75
2023/08/13 01:29:07;;;;;;;9.27;2.20;;;17.30;75.00;;;;;;5031836;28;20077;-75
2023/08/13 01:31:38;;;;;;;13.63;2.17;;;17.30;75.10;;;;;;5013487;28;20132;-75
2023/08/13 01:34:07;;;;;;;9.20;2.40;;;17.20;75.10;;;;;;5013238;28;20208;-75
2023/08/13 01:36:35;;;;;;;11.13;3.00;;;17.20;75.20;;;;;;5029524;28;20504;-75
2023/08/13 01:39:05;;;;;;;8.85;2.30;;;17.20;75.40;;;;;;5022778;28;20053;-75
2023/08/13 01:41:36;;;;;;;9.43;2.08;;;17.20;75.70;;;;;;5013278;28;20060;-75
2023/08/13 01:44:03;;;;;;;10.35;2.55;;;17.20;75.70;;;;;;5013050;28;20041;-75
2023/08/13 01:46:31;;;;;;;7.53;2.20;;;17.20;75.90;;;;;;5030773;28;20137;-75
2023/08/13 01:48:58;;;;;;;8.88;2.10;;;17.20;75.90;;;;;;5029671;28;20053;-75
2023/08/13 01:51:25;;;;;;;9.15;2.60;;;17.20;76.10;;;;;;5013003;28;20076;-75
2023/08/13 01:53:52;;;;;;;7.30;1.95;;;17.20;76.20;;;;;;5029231;28;20069;-75
2023/08/13 01:56:20;;;;;;;10.88;2.35;;;17.20;76.30;;;;;;5012581;28;20160;-75
2023/08/13 01:58:48;;;;;;;8.67;2.07;;;17.20;76.40;;;;;;5012105;28;20587;-76
2023/08/13 02:01:15;;;;;;;8.35;2.13;;;17.10;76.50;;;;;;5012997;28;20057;-75
2023/08/13 02:03:45;;;;;;;10.13;2.67;;;17.10;76.50;;;;;;5029570;28;20139;-75
2023/08/13 02:06:12;;;;;;;7.75;2.38;;;17.10;76.60;;;;;;5012207;28;20077;-75
2023/08/13 02:08:39;;;;;;;10.70;2.35;;;17.10;76.60;;;;;;5011617;28;20050;-75
2023/08/13 02:11:07;;;;;;;8.03;2.23;;;17.00;76.70;;;;;;5029798;28;20504;-75
2023/08/13 02:13:38;;;;;;;10.55;2.33;;;17.00;76.80;;;;;;5028490;28;20065;-76
2023/08/13 02:16:05;;;;;;;13.13;2.70;;;17.00;76.90;;;;;;5012069;28;20132;-75
2023/08/13 02:18:33;;;;;;;11.52;2.53;;;17.00;76.90;;;;;;5011688;28;20046;-75
2023/08/13 02:21:00;;;;;;;10.68;2.30;;;17.00;77.00;;;;;;5029068;28;20064;-75
2023/08/13 02:23:27;;;;;;;10.63;2.20;;;17.00;76.90;;;;;;5012974;28;20446;-75
2023/08/13 02:25:54;;;;;;;7.80;2.35;;;17.00;76.90;;;;;;5028984;28;20133;-75
2023/08/13 02:28:21;;;;;;;9.73;2.35;;;17.00;77.10;;;;;;5029681;28;20753;-75
2023/08/13 02:30:51;;;;;;;8.95;2.47;;;17.00;77.10;;;;;;5028848;28;20089;-75
2023/08/13 02:33:19;;;;;;;9.20;2.70;;;16.90;77.20;;;;;;5028915;28;20145;-75
2023/08/13 02:35:46;;;;;;;9.43;2.97;;;16.90;77.20;;;;;;5028890;28;20141;-75
2023/08/13 02:38:15;;;;;;;8.65;2.30;;;16.90;77.30;;;;;;5028679;28;20054;-76
2023/08/13 02:40:42;;;;;;;8.77;2.40;;;16.90;77.30;;;;;;5017827;28;20491;-75
2023/08/13 02:43:09;;;;;;;10.30;2.47;;;16.90;77.30;;;;;;5028907;28;20512;-75
2023/08/13 02:45:37;;;;;;;9.57;2.50;;;16.90;77.40;;;;;;5029438;28;20054;-75
2023/08/13 02:48:06;;;;;;;8.97;2.60;;;16.90;77.50;;;;;;5028840;28;20046;-75
2023/08/13 02:50:34;;;;;;;9.02;2.10;;;16.90;77.60;;;;;;5028764;28;20133;-75
2023/08/13 02:53:01;;;;;;;11.75;2.90;;;16.90;77.60;;;;;;5012143;28;20045;-75
2023/08/13 02:55:28;;;;;;;8.68;2.28;;;16.80;77.60;;;;;;5012314;28;20046;-75
2023/08/13 02:57:55;;;;;;;11.85;2.40;;;16.80;77.60;;;;;;5028820;28;20089;-75
2023/08/13 03:00:28;;;;;;;10.53;2.60;;;16.80;77.70;;;;;;5029930;28;20168;-75
2023/08/13 03:02:58;;;;;;;10.88;2.60;;;16.80;77.70;;;;;;5011881;28;20057;-75
2023/08/13 03:05:27;;;;;;;8.23;2.53;;;16.80;77.70;;;;;;5028625;28;20131;-75
2023/08/13 03:07:55;;;;;;;7.57;2.40;;;16.70;77.80;;;;;;5011612;28;20046;-75
2023/08/13 03:10:23;;;;;;;12.07;2.63;;;16.70;77.80;;;;;;5028724;28;20053;-75
2023/08/13 03:12:49;;;;;;;9.90;2.57;;;16.70;77.90;;;;;;5011928;28;20125;-75
2023/08/13 03:15:18;;;;;;;9.55;2.72;;;16.70;78.00;;;;;;5012126;28;20057;-75
2023/08/13 03:17:46;;;;;;;10.35;3.00;;;16.70;78.10;;;;;;5012104;28;20046;-75
2023/08/13 03:20:14;;;;;;;10.20;2.97;;;16.60;78.10;;;;;;5011607;28;20046;-76
2023/08/13 03:22:42;;;;;;;10.23;2.72;;;16.60;78.20;;;;;;5028308;28;20053;-75
2023/08/13 03:25:10;;;;;;;11.27;3.10;;;16.60;78.30;;;;;;5011792;28;20061;-75
2023/08/13 03:27:38;;;;;;;11.32;3.13;;;16.60;78.30;;;;;;5028431;28;20046;-76
2023/08/13 03:30:09;;;;;;;10.32;2.95;;;16.50;78.30;;;;;;5011942;28;20060;-75
2023/08/13 03:32:37;;;;;;;11.07;2.90;;;16.50;78.60;;;;;;5011551;28;20050;-75
2023/08/13 03:35:04;;;;;;;12.65;3.22;;;16.50;78.70;;;;;;5011792;28;20054;-75
2023/08/13 03:37:31;;;;;;;9.77;2.80;;;16.50;78.70;;;;;;5011365;28;20053;-76
2023/08/13 03:40:01;;;;;;;10.82;2.90;;;16.50;78.90;;;;;;5028472;28;20696;-75
2023/08/13 03:42:28;;;;;;;12.40;2.70;;;16.50;79.00;;;;;;5011103;28;20054;-75
2023/08/13 03:44:56;;;;;;;12.30;2.97;;;16.50;79.00;;;;;;5027670;28;20056;-75
2023/08/13 03:47:23;;;;;;;10.85;2.80;;;16.50;79.30;;;;;;5015880;28;20514;-75
2023/08/13 03:49:50;;;;;;;8.43;2.70;;;16.40;79.00;;;;;;5011301;28;20500;-75
2023/08/13 03:52:18;;;;;;;12.25;2.63;;;16.40;79.20;;;;;;5011151;28;20133;-76
2023/08/13 03:54:45;;;;;;;9.45;2.85;;;16.40;79.20;;;;;;5028028;28;20088;-75
2023/08/13 03:57:13;;;;;;;9.05;2.67;;;16.40;79.20;;;;;;5011018;28;20085;-75
2023/08/13 03:59:41;;;;;;;10.73;2.90;;;16.40;79.50;;;;;;5028940;28;20053;-75
2023/08/13 04:02:10;;;;;;;9.70;2.73;;;16.40;79.50;;;;;;5011137;28;20201;-75
2023/08/13 04:04:37;;;;;;;12.25;2.60;;;16.40;79.70;;;;;;5027579;28;20131;-75
2023/08/13 04:07:05;;;;;;;12.45;2.55;;;16.40;79.90;;;;;;5027578;28;20058;-75
2023/08/13 04:09:34;;;;;;;10.23;2.80;;;16.40;80.00;;;;;;5011152;28;20065;-75
2023/08/13 04:12:01;;;;;;;11.23;2.67;;;16.40;80.00;;;;;;5028230;28;20058;-75
2023/08/13 04:14:29;;;;;;;8.97;2.40;;;16.40;80.10;;;;;;5011185;28;20638;-76
2023/08/13 04:16:58;;;;;;;10.00;2.35;;;16.40;80.20;;;;;;5011078;28;20151;-76
2023/08/13 04:19:26;;;;;;;8.57;2.60;;;16.40;80.20;;;;;;5010791;28;20499;-76
2023/08/13 04:21:53;;;;;;;9.23;2.60;;;16.40;80.30;;;;;;5010640;28;20578;-76
2023/08/13 04:24:21;;;;;;;12.00;3.05;;;16.40;80.50;;;;;;5027349;28;20838;-75
2023/08/13 04:26:48;;;;;;;10.07;3.10;;;16.40;80.40;;;;;;5010794;28;20519;-76
2023/08/13 04:29:17;;;;;;;10.02;2.90;;;16.40;80.50;;;;;;5027601;28;20054;-76
2023/08/13 04:31:46;;;;;;;11.38;3.17;;;16.40;80.70;;;;;;5010732;28;20050;-76
2023/08/13 04:34:14;;;;;;;9.05;2.47;;;16.40;80.70;;;;;;5010470;28;20443;-76
2023/08/13 04:36:43;;;;;;;11.23;2.72;;;16.40;80.70;;;;;;5010461;28;20050;-76
2023/08/13 04:39:12;;;;;;;11.13;2.93;;;16.40;80.60;;;;;;5010400;28;20041;-76
2023/08/13 04:41:41;;;;;;;12.07;2.78;;;16.40;80.70;;;;;;5028341;28;20050;-76
2023/08/13 04:44:09;;;;;;;8.23;2.55;;;16.40;80.80;;;;;;5010649;28;20129;-76
2023/08/13 04:46:36;;;;;;;9.02;2.55;;;16.40;80.70;;;;;;5011457;28;20129;-76
2023/08/13 04:49:04;;;;;;;11.70;2.70;;;16.40;80.70;;;;;;5027485;28;20069;-75
2023/08/13 04:51:33;;;;;;;8.70;2.50;;;16.40;80.80;;;;;;5026733;28;20053;-76
2023/08/13 04:54:01;;;;;;;8.07;2.55;;;16.40;80.70;;;;;;5010337;28;20054;-75
2023/08/13 04:56:30;;;;;;;10.32;2.83;;;16.40;81.00;;;;;;5027103;28;20049;-76
2023/08/13 04:58:58;;;;;;;8.73;2.55;;;16.40;81.00;;;;;;5010582;28;20058;-75
2023/08/13 05:01:25;;;;;;;9.77;2.35;;;16.40;80.80;;;;;;5026638;28;20046;-76
2023/08/13 05:03:58;;;;;;;9.47;2.70;;;16.40;80.70;;;;;;5010290;28;20108;-75
2023/08/13 05:06:27;;;;;;;8.13;2.60;;;16.40;80.80;;;;;;5009874;28;20500;-75
2023/08/13 05:08:55;;;;;;;13.63;3.20;;;16.40;81.00;;;;;;5009886;28;20699;-75
2023/08/13 05:11:22;;;;;;;9.40;3.17;;;16.40;81.10;;;;;;5009238;28;20591;-75
2023/08/13 05:13:49;;;;;;;9.98;2.65;;;16.40;81.10;;;;;;5009566;28;20571;-76
2023/08/13 05:16:18;;;;;;;9.10;2.57;;;16.40;81.20;;;;;;5026251;28;20056;-76
2023/08/13 05:18:46;;;;;;;9.40;2.70;;;16.40;81.20;;;;;;5025671;28;20118;-76
2023/08/13 05:21:15;;;;;;;13.88;3.17;;;16.40;81.10;;;;;;5026049;28;20054;-76
2023/08/13 05:23:46;;;;;;;10.77;3.33;;;16.40;81.00;;;;;;5009469;28;20574;-75
2023/08/13 05:26:16;;;;;;;9.20;2.90;;;16.40;81.10;;;;;;5009563;28;20053;-75
2023/08/13 05:28:43;;;;;;;8.33;2.80;;;16.40;81.20;;;;;;5026321;28;20054;-76
2023/08/13 05:31:11;;;;;;;8.50;2.75;;;16.40;81.30;;;;;;5011048;28;20049;-75
2023/08/13 05:33:39;;;;;;;9.50;2.95;;;16.40;81.20;;;;;;5037507;28;20085;-75
2023/08/13 05:36:07;;;;;;;12.40;3.05;;;16.40;81.20;;;;;;5011900;28;20054;-76
2023/08/13 05:38:34;;;;;;;9.10;2.95;;;16.40;81.40;;;;;;5012848;28;20607;-75
2023/08/13 05:41:06;;;;;;;9.37;2.90;;;16.50;81.40;;;;;;5029431;28;20063;-76
2023/08/13 05:43:33;;;;;;;12.52;2.80;;;16.50;81.50;;;;;;5013270;28;20050;-75
2023/08/13 05:46:00;;;;;;;13.00;2.95;;;16.50;81.50;;;;;;5033023;28;20054;-76
2023/08/13 05:48:27;;;;;;;11.65;3.20;;;16.50;81.60;;;;;;5013371;28;20058;-76
2023/08/13 05:50:54;;;;;;;9.23;3.03;;;16.50;81.50;;;;;;5029591;28;20050;-75
2023/08/13 05:53:23;;;;;;;9.13;3.00;;;16.50;81.50;;;;;;5029837;28;20141;-75
2023/08/13 05:55:51;;;;;;;10.23;2.90;;;16.50;81.50;;;;;;5028766;28;20104;-76
2023/08/13 05:58:20;;;;;;;10.98;3.00;;;16.50;81.60;;;;;;5030212;28;20134;-75
2023/08/13 06:00:48;;;;;;;10.75;2.67;;;16.50;81.50;;;;;;5024135;28;20589;-75
2023/08/13 06:03:15;;;;;;;11.88;2.95;;;16.50;81.40;;;;;;5026786;28;20054;-75
2023/08/13 06:05:42;;;;;;;11.70;3.03;;;16.50;81.40;;;;;;5027784;28;20053;-75
2023/08/13 06:08:09;;;;;;;9.45;2.50;;;16.50;81.50;;;;;;5026847;28;20499;-75
2023/08/13 06:10:38;;;;;;;12.60;2.90;;;16.50;81.60;;;;;;5027105;28;20061;-75
2023/08/13 06:13:05;;;;;;;12.73;2.92;;;16.50;81.80;;;;;;5035170;28;20504;-75
2023/08/13 06:15:34;;;;;;;9.50;3.10;;;16.50;81.90;;;;;;5030557;28;20046;-75
2023/08/13 06:18:01;;;;;;;9.97;3.00;;;16.60;82.00;;;;;;5030406;28;20054;-75
2023/08/13 06:20:28;;;;;;;12.63;3.45;;;16.60;82.10;;;;;;5012107;28;20046;-76
2023/08/13 06:22:56;;;;;;;13.45;3.50;;;16.60;82.20;;;;;;5029393;28;20056;-75
2023/08/13 06:25:23;;;;;;;11.23;3.40;;;16.60;82.10;;;;;;5022812;28;20080;-75
2023/08/13 06:27:51;;;;;;;13.88;3.65;;;16.70;82.20;;;;;;5027113;28;20077;-75
2023/08/13 06:30:18;;;;;;;10.23;3.33;;;16.70;82.20;;;;;;5028039;28;20050;-75
2023/08/13 06:32:46;;;;;;;10.60;3.25;;;16.80;82.10;;;;;;5022415;28;20054;-75
2023/08/13 06:35:15;;;;;;;12.93;3.10;;;16.80;82.10;;;;;;5026441;28;20208;-75
2023/08/13 06:37:42;;;;;;;9.52;3.30;;;16.80;82.40;;;;;;5028713;28;20061;-76
2023/08/13 06:40:10;;;;;;;12.98;3.85;;;16.90;82.50;;;;;;5029034;28;20171;-74
2023/08/13 06:42:37;;;;;;;11.23;3.40;;;16.90;82.60;;;;;;5023952;28;21051;-75
2023/08/13 06:45:05;;;;;;;10.75;3.72;;;16.90;82.60;;;;;;5024646;28;20042;-75
2023/08/13 06:47:31;;;;;;;15.60;3.58;;;17.00;82.70;;;;;;5027299;28;20087;-75
2023/08/13 06:50:00;;;;;;;12.15;3.60;;;17.00;82.70;;;;;;5029015;28;20428;-76
2023/08/13 06:52:27;;;;;;;10.48;3.22;;;17.00;82.60;;;;;;5027566;28;21058;-75
2023/08/13 06:54:54;;;;;;;12.37;3.50;;;17.10;82.50;;;;;;5028768;28;20046;-75
2023/08/13 06:57:20;;;;;;;11.60;3.60;;;17.10;82.60;;;;;;5029311;28;20054;-75
2023/08/13 06:59:49;;;;;;;8.25;3.40;;;17.20;82.80;;;;;;5027363;28;20125;-76
2023/08/13 07:02:16;;;;;;;11.20;3.70;;;17.20;82.60;;;;;;5028891;28;20045;-75
2023/08/13 07:04:43;;;;;;;14.35;3.53;;;17.30;82.60;;;;;;5026411;28;20045;-76
2023/08/13 07:07:11;;;;;;;9.93;3.43;;;17.40;82.40;;;;;;5028160;28;20054;-76
2023/08/13 07:09:39;;;;;;;10.23;3.22;;;17.40;82.50;;;;;;5027206;28;20046;-76
2023/08/13 07:12:07;;;;;;;7.82;3.75;;;17.40;82.40;;;;;;5027203;28;20058;-76
2023/08/13 07:14:34;;;;;;;10.80;3.55;;;17.50;82.40;;;;;;5029829;28;20061;-76
2023/08/13 07:17:02;;;;;;;11.73;3.90;;;17.50;82.20;;;;;;5028832;28;21100;-76
2023/08/13 07:19:29;;;;;;;10.80;3.43;;;17.60;82.20;;;;;;5029526;28;20100;-76
2023/08/13 07:21:56;;;;;;;10.90;3.00;;;17.60;82.00;;;;;;5029017;28;20054;-76
2023/08/13 07:24:25;;;;;;;8.93;3.33;;;17.70;82.00;;;;;;5026945;28;20081;-76
2023/08/13 07:26:52;;;;;;;10.80;2.70;;;17.80;82.00;;;;;;5022948;28;20108;-76
2023/08/13 07:29:19;;;;;;;11.23;3.08;;;17.80;81.80;;;;;;5011249;28;20606;-76
2023/08/13 07:31:46;;;;;;;8.10;2.50;;;17.90;81.40;;;;;;5025323;28;20136;-76
2023/08/13 07:34:13;;;;;;;8.57;2.63;;;18.00;81.10;;;;;;5026844;28;20058;-76
2023/08/13 07:36:40;;;;;;;8.65;2.90;;;18.00;80.70;;;;;;5034078;28;20626;-76
2023/08/13 07:39:10;;;;;;;10.18;2.67;;;18.00;80.40;;;;;;5035964;28;20045;-76
2023/08/13 07:41:38;;;;;;;11.77;3.17;;;18.10;80.30;;;;;;5028938;28;20089;-76
2023/08/13 07:44:07;;;;;;;9.47;2.27;;;18.10;80.20;;;;;;5029184;28;20060;-76
2023/08/13 07:46:35;;;;;;;11.43;2.95;;;18.10;80.00;;;;;;5026231;28;20904;-76
2023/08/13 07:49:02;;;;;;;11.30;2.65;;;18.20;80.00;;;;;;5011256;28;20042;-75
2023/08/13 07:51:31;;;;;;;9.48;2.60;;;18.20;79.60;;;;;;5028111;28;20507;-76
2023/08/13 07:54:04;;;;;;;5.03;1.90;;;18.30;79.10;;;;;;5002783;28;20101;-75
2023/08/13 07:56:31;;;;;;;11.70;2.53;;;18.30;79.30;;;;;;5028632;28;20582;-75
2023/08/13 07:59:00;;;;;;;8.82;2.60;;;18.30;79.40;;;;;;5007757;28;20129;-75
2023/08/13 08:01:28;;;;;;;9.45;2.40;;;18.30;79.80;;;;;;5037682;28;20065;-75
2023/08/13 08:03:56;;;;;;;10.07;2.47;;;18.40;80.00;;;;;;5032453;28;20112;-75
2023/08/13 08:06:23;;;;;;;9.32;2.60;;;18.40;79.50;;;;;;5035295;28;20054;-75
2023/08/13 08:08:50;;;;;;;8.10;2.40;;;18.50;79.00;;;;;;5030874;28;21068;-75
2023/08/13 08:11:19;;;;;;;5.95;1.90;;;18.60;78.90;;;;;;5013838;28;20053;-75
2023/08/13 08:13:46;;;;;;;10.07;2.60;;;18.60;78.70;;;;;;5033442;28;20132;-74
2023/08/13 08:16:16;;;;;;;8.90;2.45;;;18.60;78.60;;;;;;5031463;28;20046;-74
2023/08/13 08:18:43;;;;;;;8.65;2.60;;;18.70;78.60;;;;;;5039346;28;20054;-74
2023/08/13 08:21:10;;;;;;;8.57;2.50;;;18.70;78.60;;;;;;5026515;28;20050;-74
2023/08/13 08:23:39;;;;;;;7.20;2.13;;;18.70;78.60;;;;;;5012437;28;20054;-74
2023/08/13 08:26:06;;;;;;;9.30;2.17;;;18.80;78.30;;;;;;5032429;28;20920;-75
2023/08/13 08:28:33;;;;;;;8.52;2.50;;;18.80;78.00;;;;;;5028700;28;20523;-75
2023/08/13 08:31:00;;;;;;;6.88;2.05;;;18.80;78.10;;;;;;5028680;28;20054;-75
2023/08/13 08:33:29;;;;;;;10.17;2.53;;;18.90;77.80;;;;;;5026956;28;20054;-75
2023/08/13 08:35:56;;;;;;;9.80;2.63;;;18.90;77.80;;;;;;5031752;28;21087;-75
2023/08/13 08:38:23;;;;;;;8.10;2.08;;;19.00;77.40;;;;;;5032431;28;20048;-75
2023/08/13 08:40:53;;;;;;;7.25;2.00;;;19.10;77.50;;;;;;5033568;28;20060;-75
2023/08/13 08:43:23;;;;;;;9.35;2.08;;;19.10;77.00;;;;;;5035658;28;20054;-75
2023/08/13 08:45:52;;;;;;;6.83;1.60;;;19.10;77.00;;;;;;5030453;28;20135;-75
2023/08/13 08:48:20;;;;;;;7.93;1.67;;;19.20;76.00;;;;;;5032964;28;21150;-75
2023/08/13 08:50:51;;;;;;;6.35;1.92;;;19.30;75.90;;;;;;5029567;28;20046;-75
2023/08/13 08:53:18;;;;;;;6.00;2.20;;;19.30;76.40;;;;;;5035339;28;20042;-75
2023/08/13 08:56:13;;;;;;;6.80;1.95;;;19.40;76.30;;;;;;5034979;28;20483;-75
2023/08/13 08:58:40;;;;;;;6.00;1.63;;;19.50;76.00;;;;;;5028320;28;20104;-75
2023/08/13 09:01:07;;;;;;;8.02;2.05;;;19.50;75.00;;;;;;5027968;28;20050;-75
2023/08/13 09:03:34;;;;;;;8.15;2.10;;;19.60;74.50;;;;;;5029342;28;20056;-75
2023/08/13 09:06:02;;;;;;;7.53;2.10;;;19.70;74.20;;;;;;5025381;28;20085;-75
2023/08/13 09:08:29;;;;;;;7.25;2.03;;;19.70;73.40;;;;;;5029482;28;20050;-75
2023/08/13 09:10:56;;;;;;;7.93;1.53;;;19.70;73.30;;;;;;5010353;28;20599;-75
2023/08/13 09:13:24;;;;;;;8.30;2.20;;;19.80;73.70;;;;;;5027727;28;20050;-75
2023/08/13 09:15:54;;;;;;;11.13;2.13;;;19.90;73.90;;;;;;5029369;28;20052;-75
2023/08/13 09:18:21;;;;;;;7.03;1.90;;;19.90;73.70;;;;;;5029397;28;20140;-75
2023/08/13 09:20:50;;;;;;;6.35;2.00;;;20.00;73.20;;;;;;5031218;28;20060;-75
2023/08/13 09:23:27;;;;;;;5.47;1.63;;;20.00;73.10;;;;;;5031524;28;20142;-76
2023/08/13 09:25:55;;;;;;;6.88;1.95;;;20.00;73.00;;;;;;5031283;28;20817;-75
2023/08/13 09:28:22;;;;;;;6.88;2.00;;;20.10;71.90;;;;;;5031660;28;20596;-72
2023/08/13 09:30:49;;;;;;;7.97;1.90;;;20.10;72.30;;;;;;5030854;28;20432;-73
2023/08/13 09:33:18;;;;;;;5.47;1.92;;;20.20;71.70;;;;;;5024871;28;20058;-73
2023/08/13 09:35:46;;;;;;;5.30;1.50;;;20.20;72.00;;;;;;5015995;28;20049;-73
2023/08/13 09:38:13;;;;;;;6.10;1.50;;;20.30;71.60;;;;;;5033873;28;20057;-72
2023/08/13 09:40:45;;;;;;;5.28;1.50;;;20.30;71.10;;;;;;5027663;28;20539;-72
2023/08/13 09:43:20;;;;;;;9.10;1.60;;;20.30;71.00;;;;;;5028322;28;20108;-72
2023/08/13 09:45:50;;;;;;;6.15;1.60;;;20.40;71.70;;;;;;5027330;28;20053;-72
2023/08/13 09:48:19;;;;;;;7.23;1.80;;;20.50;71.90;;;;;;5028955;28;20074;-72
2023/08/13 09:50:49;;;;;;;6.00;1.60;;;20.50;71.70;;;;;;5027864;28;20054;-72
2023/08/13 09:53:20;;;;;;;5.57;1.80;;;20.50;72.00;;;;;;5030648;28;20056;-75
2023/08/13 09:55:52;;;;;;;7.90;1.65;;;20.60;71.90;;;;;;5015815;28;20137;-74
2023/08/13 09:58:20;;;;;;;5.90;1.70;;;20.60;71.10;;;;;;5022547;28;20054;-72
2023/08/13 10:00:48;;;;;;;5.70;1.47;;;20.70;71.00;;;;;;5029413;28;20053;-73
2023/08/13 10:03:16;;;;;;;8.88;2.00;;;20.70;70.80;;;;;;5028995;28;20149;-73
2023/08/13 10:05:45;;;;;;;9.10;1.67;;;20.80;70.70;;;;;;5028584;28;20057;-73
2023/08/13 10:08:12;;;;;;;6.35;1.38;;;20.80;70.00;;;;;;5028782;28;20085;-73
2023/08/13 10:10:40;;;;;;;5.78;1.20;;;20.90;70.30;;;;;;5027048;28;20058;-72
2023/08/13 10:13:10;;;;;;;6.10;1.10;;;20.90;69.80;;;;;;5028021;28;20046;-73
2023/08/13 10:15:38;;;;;;;3.92;0.60;;;20.90;70.00;;;;;;5028382;28;20719;-72
2023/08/13 10:18:05;;;;;;;4.05;1.05;;;21.00;67.90;;;;;;5013925;28;20081;-73
2023/08/13 10:20:33;;;;;;;6.13;1.13;;;21.00;67.20;;;;;;5013117;28;20046;-72
2023/08/13 10:23:01;;;;;;;4.15;1.20;;;21.00;68.30;;;;;;5019603;28;20581;-73
2023/08/13 10:25:29;;;;;;;4.03;0.77;;;21.00;68.40;;;;;;5020788;28;20046;-73
2023/08/13 10:27:58;;;;;;;4.57;0.93;;;21.00;68.00;;;;;;5020579;28;20712;-73
2023/08/13 10:30:26;;;;;;;5.95;1.10;;;21.10;67.20;;;;;;5028636;28;20519;-73
2023/08/13 10:32:55;;;;;;;4.03;1.00;;;21.10;67.40;;;;;;5028452;28;20057;-72
2023/08/13 10:35:29;;;;;;;4.10;1.00;;;21.10;67.50;;;;;;5024090;28;20137;-73
2023/08/13 10:37:57;;;;;;;4.50;0.80;;;21.10;67.80;;;;;;5018232;28;20137;-72
2023/08/13 10:40:25;;;;;;;3.42;0.65;;;21.10;67.70;;;;;;5027751;28;21099;-72
2023/08/13 10:42:53;;;;;;;5.50;0.82;;;21.10;66.20;;;;;;5028597;28;20567;-72
2023/08/13 10:45:22;;;;;;;2.45;0.47;;;21.20;65.10;;;;;;5027438;28;20831;-72
2023/08/13 10:47:53;;;;;;;4.10;0.80;;;21.20;65.70;;;;;;5024723;28;20046;-73
2023/08/13 10:50:27;;;;;;;4.60;0.80;;;21.30;65.60;;;;;;5027251;28;20058;-72
2023/08/13 10:53:00;;;;;;;4.50;0.90;;;21.20;66.00;;;;;;5023829;28;20065;-72
2023/08/13 10:55:30;;;;;;;3.42;0.75;;;21.30;66.20;;;;;;5023401;28;20050;-72
2023/08/13 10:57:57;;;;;;;3.78;0.77;;;21.30;65.70;;;;;;5022802;28;20053;-73
2023/08/13 11:00:26;;;;;;;3.92;1.00;;;21.30;65.90;;;;;;5025830;28;20045;-73
2023/08/13 11:02:59;;;;;;;4.07;0.50;;;21.30;66.60;;;;;;5026395;28;20151;-72
2023/08/13 11:05:27;;;;;;;3.10;0.60;;;21.30;66.10;;;;;;5027312;28;20046;-72
2023/08/13 11:07:54;;;;;;;4.60;0.70;;;21.40;66.00;;;;;;5028251;28;20132;-72
2023/08/13 11:10:21;;;;;;;6.07;0.77;;;21.40;65.80;;;;;;5027415;28;20046;-73
2023/08/13 11:12:49;;;;;;;4.20;0.90;;;21.40;65.40;;;;;;5028964;28;20049;-73
2023/08/13 11:15:17;;;;;;;3.77;0.63;;;21.50;65.70;;;;;;5028547;28;20496;-73
2023/08/13 11:17:47;;;;;;;4.32;0.90;;;21.50;66.40;;;;;;5024754;28;20047;-72
2023/08/13 11:20:19;;;;;;;3.70;0.70;;;21.50;65.70;;;;;;5013693;28;20101;-72
2023/08/13 11:22:47;;;;;;;4.47;0.90;;;21.50;64.80;;;;;;5028163;28;20050;-72
2023/08/13 11:25:15;;;;;;;2.92;0.88;;;21.50;65.00;;;;;;5029630;28;20054;-72
2023/08/13 11:27:42;;;;;;;5.87;0.97;;;21.50;65.60;;;;;;5027426;28;20133;-73
2023/08/13 11:30:10;;;;;;;4.35;1.00;;;21.50;65.80;;;;;;5027820;28;20045;-72
2023/08/13 11:32:38;;;;;;;4.97;0.88;;;21.50;65.60;;;;;;5028296;28;20107;-72
2023/08/13 11:35:06;;;;;;;3.53;0.90;;;21.50;65.50;;;;;;5027604;28;20097;-72
2023/08/13 11:37:36;;;;;;;5.22;1.23;;;21.50;65.60;;;;;;5027728;28;20046;-72
2023/08/13 11:40:05;;;;;;;5.57;1.10;;;21.50;66.20;;;;;;5016341;28;20148;-73
2023/08/13 11:42:32;;;;;;;5.32;0.82;;;21.50;66.20;;;;;;5014549;28;20115;-72
2023/08/13 11:45:03;;;;;;;4.70;1.10;;;21.50;66.20;;;;;;5028030;28;20120;-73
2023/08/13 11:47:30;;;;;;;4.55;1.25;;;21.50;66.10;;;;;;5028204;28;20054;-73
2023/08/13 11:49:59;;;;;;;5.13;1.30;;;21.50;66.40;;;;;;5029113;28;20050;-73
2023/08/13 11:52:28;;;;;;;5.27;1.43;;;21.50;66.00;;;;;;5010060;28;20526;-74
2023/08/13 11:54:58;;;;;;;6.18;1.20;;;21.50;65.70;;;;;;5026597;28;20057;-73
2023/08/13 11:57:27;;;;;;;5.68;1.20;;;21.50;66.00;;;;;;5024802;28;20136;-73
2023/08/13 11:59:57;;;;;;;5.05;1.10;;;21.50;66.30;;;;;;5022336;28;20628;-73
2023/08/13 12:02:26;;;;;;;6.65;1.40;;;21.50;66.30;;;;;;5026323;28;20157;-73
2023/08/13 12:04:55;;;;;;;4.70;1.47;;;21.50;66.50;;;;;;5024336;28;20058;-73
2023/08/13 12:07:22;;;;;;;7.13;1.77;;;21.50;66.70;;;;;;5025252;28;20057;-73
2023/08/13 12:09:49;;;;;;;6.40;1.75;;;21.50;67.10;;;;;;5025290;28;20058;-73
2023/08/13 12:12:18;;;;;;;6.18;1.50;;;21.60;66.90;;;;;;5025285;28;20054;-73
2023/08/13 12:14:45;;;;;;;7.25;1.77;;;21.50;67.10;;;;;;5026573;28;20042;-73
2023/08/13 12:17:13;;;;;;;6.27;1.47;;;21.60;66.30;;;;;;5026114;28;20157;-74
2023/08/13 12:19:40;;;;;;;7.70;1.83;;;21.50;66.10;;;;;;5007953;28;20045;-74
2023/08/13 12:22:07;;;;;;;6.75;1.80;;;21.50;66.40;;;;;;5025036;28;20221;-73
2023/08/13 12:24:34;;;;;;;7.63;1.75;;;21.50;66.60;;;;;;5023049;28;20549;-73
2023/08/13 12:27:02;;;;;;;7.50;1.80;;;21.50;67.10;;;;;;5033667;28;20157;-72
2023/08/13 12:29:30;;;;;;;5.53;1.53;;;21.50;67.30;;;;;;5025054;28;20045;-74
2023/08/13 12:31:57;;;;;;;8.48;2.00;;;21.50;67.30;;;;;;5024390;28;20053;-74
2023/08/13 12:34:24;;;;;;;6.57;1.70;;;21.50;67.80;;;;;;5025993;28;20419;-74
2023/08/13 12:36:51;;;;;;;8.65;1.80;;;21.50;68.00;;;;;;5023312;28;20046;-73
2023/08/13 12:39:18;;;;;;;5.80;1.67;;;21.50;68.60;;;;;;5028607;28;20129;-73
2023/08/13 12:41:45;;;;;;;6.27;1.80;;;21.50;68.70;;;;;;5032459;28;20145;-74
2023/08/13 12:44:12;;;;;;;5.47;1.92;;;21.60;68.10;;;;;;5033721;28;20061;-73
2023/08/13 12:46:40;;;;;;;8.63;1.90;;;21.70;68.10;;;;;;5034205;28;20061;-74
2023/08/13 12:49:07;;;;;;;6.65;1.90;;;21.70;68.00;;;;;;5037013;28;20042;-73